createdAt,value
2018-12-16T00:00:33.041Z,10.73
2018-12-16T00:03:01.987Z,6.87
2018-12-16T00:05:30.768Z,7.97
2018-12-16T00:08:11.860Z,8.87
2018-12-16T00:10:40.563Z,7.60
2018-12-16T00:13:13.035Z,8.10
2018-12-16T00:15:41.751Z,11.07
2018-12-16T00:18:13.672Z,9.30
2018-12-16T00:20:42.392Z,9.33
2018-12-16T00:23:11.096Z,9.00
2018-12-16T00:25:39.795Z,8.73
2018-12-16T00:28:26.998Z,8.23
2018-12-16T00:30:55.779Z,9.93
2018-12-16T00:33:24.503Z,9.50
2018-12-16T00:35:54.536Z,8.87
2018-12-16T00:38:23.319Z,8.40
2018-12-16T00:40:52.030Z,9.53
2018-12-16T00:43:20.744Z,8.27
2018-12-16T00:45:49.508Z,7.70
2018-12-16T00:48:18.219Z,7.13
2018-12-16T00:50:50.979Z,8.40
2018-12-16T00:53:21.703Z,7.73
2018-12-16T00:55:50.403Z,6.83
2018-12-16T00:58:19.119Z,7.40
2018-12-16T01:00:47.959Z,8.80
2018-12-16T01:03:16.739Z,6.10
2018-12-16T01:05:46.263Z,7.93
2018-12-16T01:08:15.032Z,7.37
2018-12-16T01:11:02.563Z,7.60
2018-12-16T01:13:33.416Z,7.03
2018-12-16T01:16:06.315Z,7.83
2018-12-16T01:18:35.087Z,9.30
2018-12-16T01:21:03.830Z,6.97
2018-12-16T01:23:32.604Z,7.93
2018-12-16T01:26:07.293Z,8.17
2018-12-16T01:28:35.988Z,7.80
2018-12-16T01:31:04.675Z,8.23
2018-12-16T01:33:33.468Z,7.50
2018-12-16T01:36:08.801Z,8.37
2018-12-16T01:38:37.519Z,8.70
2018-12-16T01:41:06.281Z,7.57
2018-12-16T01:43:35.031Z,7.80
2018-12-16T01:46:03.859Z,6.83
2018-12-16T01:48:38.231Z,7.13
2018-12-16T01:51:14.363Z,8.03
2018-12-16T01:53:43.103Z,7.10
2018-12-16T01:56:15.156Z,7.10
2018-12-16T01:58:43.922Z,9.87
2018-12-16T02:01:12.739Z,7.70
2018-12-16T02:03:41.442Z,9.73
2018-12-16T02:06:13.969Z,5.83
2018-12-16T02:08:42.796Z,8.00
2018-12-16T02:11:11.657Z,7.67
2018-12-16T02:13:40.356Z,7.70
2018-12-16T02:16:09.123Z,7.97
2018-12-16T02:18:37.991Z,7.13
2018-12-16T02:21:06.703Z,7.07
2018-12-16T02:23:35.462Z,6.87
2018-12-16T02:26:04.231Z,6.63
2018-12-16T02:28:32.922Z,7.50
2018-12-16T02:31:01.700Z,6.57
2018-12-16T02:33:30.455Z,7.03
2018-12-16T02:38:57.958Z,7.17
2018-12-16T02:41:26.851Z,7.57
2018-12-16T02:43:55.545Z,7.93
2018-12-16T02:46:30.288Z,6.73
2018-12-16T02:48:59.119Z,7.00
2018-12-16T02:51:27.943Z,6.90
2018-12-16T02:53:56.704Z,6.73
2018-12-16T02:56:37.513Z,8.33
2018-12-16T02:59:06.340Z,7.40
2018-12-16T03:01:35.117Z,7.73
2018-12-16T03:04:04.004Z,7.70
2018-12-16T03:14:13.871Z,7.03
2018-12-16T03:17:00.201Z,6.60
2018-12-16T03:19:29.184Z,9.43
2018-12-16T03:21:57.910Z,7.93
2018-12-16T03:24:26.678Z,7.40
2018-12-16T03:27:13.849Z,6.57
2018-12-16T03:29:42.547Z,7.03
2018-12-16T03:32:11.246Z,8.10
2018-12-16T03:34:39.999Z,6.87
2018-12-16T03:37:27.129Z,8.87
2018-12-16T03:39:55.841Z,6.63
2018-12-16T03:42:24.546Z,7.60
2018-12-16T03:44:53.356Z,5.67
2018-12-16T03:47:34.372Z,7.97
2018-12-16T03:50:03.420Z,6.90
2018-12-16T03:52:32.162Z,6.80
2018-12-16T03:55:13.200Z,7.23
2018-12-16T03:57:58.740Z,7.23
2018-12-16T04:00:27.505Z,6.57
2018-12-16T04:02:56.211Z,7.40
2018-12-16T04:05:37.150Z,7.60
2018-12-16T04:08:16.058Z,7.20
2018-12-16T04:10:44.964Z,6.47
2018-12-16T04:13:13.708Z,6.83
2018-12-16T04:15:42.545Z,8.43
2018-12-16T04:18:21.695Z,6.70
2018-12-16T04:20:50.395Z,7.07
2018-12-16T04:23:19.096Z,7.20
2018-12-16T04:25:47.790Z,7.87
2018-12-16T04:28:16.622Z,9.17
2018-12-16T04:30:45.428Z,7.00
2018-12-16T04:33:14.133Z,6.37
2018-12-16T04:35:42.893Z,7.77
2018-12-16T04:38:24.192Z,9.70
2018-12-16T04:40:52.967Z,7.57
2018-12-16T04:43:21.680Z,6.83
2018-12-16T04:45:50.383Z,8.37
2018-12-16T04:48:19.083Z,7.97
2018-12-16T04:50:47.775Z,9.17
2018-12-16T04:53:16.489Z,8.90
2018-12-16T04:55:45.312Z,7.47
2018-12-16T04:58:24.168Z,7.70
2018-12-16T05:00:52.880Z,8.67
2018-12-16T05:03:21.580Z,6.63
2018-12-16T05:05:50.280Z,7.33
2018-12-16T05:08:18.976Z,7.73
2018-12-16T05:10:47.739Z,8.17
2018-12-16T05:16:13.260Z,8.07
2018-12-16T05:18:42.797Z,7.77
2018-12-16T05:21:11.555Z,7.13
2018-12-16T05:23:42.039Z,7.73
2018-12-16T05:26:20.963Z,8.57
2018-12-16T05:28:49.684Z,7.23
2018-12-16T05:31:18.376Z,8.17
2018-12-16T05:33:47.077Z,8.67
2018-12-16T05:39:09.327Z,8.73
2018-12-16T05:41:38.032Z,8.07
2018-12-16T05:44:06.739Z,8.10
2018-12-16T05:46:47.651Z,9.23
2018-12-16T05:49:17.475Z,7.80
2018-12-16T05:51:46.168Z,7.53
2018-12-16T05:54:14.872Z,9.60
2018-12-16T05:56:50.038Z,7.30
2018-12-16T05:59:18.779Z,7.17
2018-12-16T06:01:47.479Z,9.27
2018-12-16T06:04:23.727Z,9.73
2018-12-16T06:06:56.007Z,9.70
2018-12-16T06:09:24.712Z,8.40
2018-12-16T06:11:53.415Z,9.27
2018-12-16T06:14:22.116Z,7.20
2018-12-16T06:16:53.912Z,8.00
2018-12-16T06:19:22.663Z,6.33
2018-12-16T06:21:51.360Z,6.93
2018-12-16T06:24:20.132Z,8.00
2018-12-16T06:26:52.572Z,7.83
2018-12-16T06:29:25.282Z,9.63
2018-12-16T06:31:55.273Z,7.53
2018-12-16T06:34:24.066Z,8.47
2018-12-16T06:36:56.364Z,9.10
2018-12-16T06:39:25.071Z,7.50
2018-12-16T06:41:55.257Z,8.90
2018-12-16T06:44:24.133Z,7.87
2018-12-16T06:46:56.215Z,8.73
2018-12-16T06:49:25.012Z,9.47
2018-12-16T06:51:53.787Z,8.30
2018-12-16T06:54:22.496Z,8.73
2018-12-16T06:56:54.820Z,7.67
2018-12-16T06:59:23.587Z,9.27
2018-12-16T07:01:52.336Z,10.83
2018-12-16T07:04:21.037Z,9.17
2018-12-16T07:06:53.369Z,10.47
2018-12-16T07:09:22.060Z,9.77
2018-12-16T07:11:50.776Z,12.13
2018-12-16T07:14:19.547Z,10.73
2018-12-16T07:16:52.067Z,9.40
2018-12-16T07:19:20.853Z,9.87
2018-12-16T07:21:49.571Z,9.37
2018-12-16T07:24:18.303Z,9.63
2018-12-16T07:26:50.996Z,9.90
2018-12-16T07:29:19.731Z,11.03
2018-12-16T07:31:48.478Z,8.87
2018-12-16T07:34:17.195Z,11.10
2018-12-16T07:42:44.908Z,11.67
2018-12-16T07:45:13.651Z,10.67
2018-12-16T07:47:58.744Z,10.17
2018-12-16T07:50:27.476Z,8.93
2018-12-16T07:53:08.951Z,11.03
2018-12-16T07:55:37.682Z,9.33
2018-12-16T07:58:25.607Z,13.63
2018-12-16T08:00:54.363Z,10.63
2018-12-16T08:03:23.082Z,12.60
2018-12-16T08:05:51.867Z,11.73
2018-12-16T08:08:20.638Z,11.30
2018-12-16T08:10:49.351Z,11.47
2018-12-16T08:13:18.069Z,12.53
2018-12-16T08:15:46.782Z,12.50
2018-12-16T08:26:23.223Z,11.47
2018-12-16T08:28:51.928Z,10.00
2018-12-16T08:31:20.635Z,11.53
2018-12-16T08:33:49.348Z,11.63
2018-12-16T08:36:21.484Z,11.53
2018-12-16T08:38:50.208Z,9.87
2018-12-16T08:41:18.904Z,10.70
2018-12-16T08:43:47.600Z,11.50
2018-12-16T08:49:09.978Z,9.73
2018-12-16T08:51:38.692Z,12.30
2018-12-16T08:54:07.579Z,10.70
2018-12-16T08:56:45.961Z,11.83
2018-12-16T08:59:14.664Z,10.83
2018-12-16T09:01:43.355Z,12.00
2018-12-16T09:04:29.060Z,12.20
2018-12-16T09:07:04.133Z,11.60
2018-12-16T09:09:32.918Z,11.90
2018-12-16T09:12:01.618Z,11.73
2018-12-16T09:14:30.305Z,10.77
2018-12-16T09:17:02.448Z,14.97
2018-12-16T09:19:31.145Z,16.00
2018-12-16T09:21:59.960Z,14.30
2018-12-16T09:24:28.760Z,16.10
2018-12-16T09:27:01.111Z,14.37
2018-12-16T09:29:48.013Z,12.37
2018-12-16T09:32:16.731Z,14.50
2018-12-16T09:34:59.896Z,12.50
2018-12-16T09:37:46.960Z,15.60
2018-12-16T09:40:32.581Z,16.77
2018-12-16T09:43:01.364Z,15.47
2018-12-16T09:45:30.066Z,14.40
2018-12-16T09:48:17.662Z,14.73
2018-12-16T09:50:46.620Z,19.73
2018-12-16T09:53:19.152Z,16.20
2018-12-16T09:55:47.851Z,12.53
2018-12-16T09:58:16.638Z,14.50
2018-12-16T10:00:45.495Z,15.20
2018-12-16T10:03:15.660Z,17.90
2018-12-16T10:05:44.354Z,13.80
2018-12-16T10:08:16.307Z,16.27
2018-12-16T10:10:45.007Z,13.23
2018-12-16T10:13:13.808Z,14.90
2018-12-16T10:15:42.736Z,13.03
2018-12-16T10:18:21.311Z,14.43
2018-12-16T10:20:50.121Z,16.30
2018-12-16T10:23:18.901Z,13.50
2018-12-16T10:25:47.623Z,13.73
2018-12-16T10:28:35.280Z,14.43
2018-12-16T10:31:04.051Z,11.17
2018-12-16T10:33:32.835Z,13.00
2018-12-16T10:36:18.271Z,12.90
2018-12-16T10:38:47.235Z,12.87
2018-12-16T10:41:23.288Z,13.70
2018-12-16T10:43:52.088Z,13.13
2018-12-16T10:46:41.194Z,13.17
2018-12-16T10:49:10.000Z,11.53
2018-12-16T10:51:58.429Z,12.40
2018-12-16T10:54:32.015Z,12.67
2018-12-16T10:57:04.424Z,13.20
2018-12-16T10:59:56.563Z,13.10
2018-12-16T11:02:25.437Z,11.80
2018-12-16T11:04:57.362Z,11.40
2018-12-16T11:07:29.441Z,13.17
2018-12-16T11:09:58.159Z,11.03
2018-12-16T11:12:27.073Z,11.47
2018-12-16T11:14:55.836Z,11.57
2018-12-16T11:17:29.550Z,12.10
2018-12-16T11:19:58.266Z,11.87
2018-12-16T11:22:27.063Z,12.10
2018-12-16T11:24:55.767Z,15.77
2018-12-16T11:27:30.125Z,15.77
2018-12-16T11:30:00.955Z,13.80
2018-12-16T11:32:36.559Z,12.20
2018-12-16T11:35:24.306Z,12.97
2018-12-16T11:37:56.633Z,13.70
2018-12-16T11:40:25.579Z,14.17
2018-12-16T11:43:06.551Z,17.00
2018-12-16T11:45:35.619Z,15.63
2018-12-16T11:48:08.183Z,12.93
2018-12-16T11:50:36.919Z,16.47
2018-12-16T11:53:05.611Z,16.27
2018-12-16T11:55:37.527Z,16.50
2018-12-16T11:58:09.731Z,12.47
2018-12-16T12:00:38.464Z,14.37
2018-12-16T12:03:07.162Z,15.43
2018-12-16T12:08:24.688Z,14.97
2018-12-16T12:10:53.413Z,12.10
2018-12-16T12:13:22.208Z,14.93
2018-12-16T12:15:51.419Z,13.13
2018-12-16T12:18:20.167Z,13.23
2018-12-16T12:20:48.871Z,15.60
2018-12-16T12:23:17.567Z,13.43
2018-12-16T12:25:46.409Z,14.47
2018-12-16T12:28:18.708Z,18.07
2018-12-16T12:30:47.500Z,15.33
2018-12-16T12:33:16.482Z,12.97
2018-12-16T12:35:45.231Z,15.80
2018-12-16T12:38:17.239Z,14.07
2018-12-16T12:43:54.551Z,12.93
2018-12-16T12:49:47.570Z,11.87
2018-12-16T12:52:16.259Z,13.60
2018-12-16T12:54:45.075Z,14.93
2018-12-16T13:00:18.576Z,15.40
2018-12-16T13:02:47.339Z,14.17
2018-12-16T13:05:16.131Z,15.67
2018-12-16T13:07:57.143Z,14.77
2018-12-16T13:10:25.864Z,17.73
2018-12-16T13:12:54.583Z,19.97
2018-12-16T13:15:23.476Z,15.10
2018-12-16T13:18:08.580Z,17.67
2018-12-16T13:20:40.319Z,13.80
2018-12-16T13:23:17.158Z,15.13
2018-12-16T13:26:01.263Z,15.80
2018-12-16T13:28:30.103Z,17.23
2018-12-16T13:30:59.080Z,16.40
2018-12-16T13:33:31.850Z,20.33
2018-12-16T13:36:00.544Z,16.10
2018-12-16T13:38:29.328Z,18.90
2018-12-16T13:40:58.103Z,14.37
2018-12-16T13:43:34.391Z,13.33
2018-12-16T13:46:15.660Z,15.37
2018-12-16T13:48:44.378Z,16.60
2018-12-16T13:51:13.140Z,15.90
2018-12-16T13:53:41.936Z,16.63
2018-12-16T13:56:18.771Z,15.20
2018-12-16T13:58:47.572Z,16.47
2018-12-16T14:01:16.394Z,17.27
2018-12-16T14:03:47.163Z,16.50
2018-12-16T14:06:38.529Z,14.70
2018-12-16T14:09:07.744Z,16.57
2018-12-16T14:11:36.512Z,14.63
2018-12-16T14:14:05.300Z,16.00
2018-12-16T14:16:42.312Z,15.37
2018-12-16T14:19:11.000Z,19.00
2018-12-16T14:21:39.732Z,18.67
2018-12-16T14:24:08.596Z,14.73
2018-12-16T14:26:41.215Z,16.23
2018-12-16T14:29:09.924Z,14.80
2018-12-16T14:31:38.651Z,13.83
2018-12-16T14:34:07.476Z,15.77
2018-12-16T14:36:48.725Z,15.17
2018-12-16T14:39:17.454Z,15.80
2018-12-16T14:41:46.217Z,17.87
2018-12-16T14:44:15.126Z,16.37
2018-12-16T14:46:47.607Z,13.57
2018-12-16T14:49:16.431Z,14.10
2018-12-16T14:51:57.504Z,15.93
2018-12-16T14:54:26.311Z,15.23
2018-12-16T14:56:58.175Z,14.53
2018-12-16T14:59:26.882Z,16.43
2018-12-16T15:01:55.754Z,13.40
2018-12-16T15:04:24.559Z,14.90
2018-12-16T15:06:59.480Z,17.17
2018-12-16T15:09:28.203Z,18.87
2018-12-16T15:11:56.906Z,19.40
2018-12-16T15:14:29.626Z,23.53
2018-12-16T15:17:16.494Z,18.60
2018-12-16T15:19:45.215Z,19.37
2018-12-16T15:22:14.008Z,16.83
2018-12-16T15:24:42.715Z,19.80
2018-12-16T15:27:14.780Z,23.73
2018-12-16T15:29:43.588Z,19.90
2018-12-16T15:32:12.328Z,17.30
2018-12-16T15:34:41.460Z,18.13
2018-12-16T15:37:26.340Z,20.20
2018-12-16T15:39:55.039Z,17.93
2018-12-16T15:42:24.583Z,16.57
2018-12-16T15:44:54.732Z,18.30
2018-12-16T15:47:31.311Z,16.50
2018-12-16T15:50:01.086Z,17.63
2018-12-16T15:52:29.735Z,15.87
2018-12-16T15:57:52.630Z,15.07
2018-12-16T16:03:27.899Z,18.20
2018-12-16T16:05:56.738Z,16.20
2018-12-16T16:08:31.119Z,16.47
2018-12-16T16:11:01.384Z,18.03
2018-12-16T16:13:30.149Z,17.70
2018-12-16T16:15:59.583Z,22.03
2018-12-16T16:18:28.804Z,18.90
2018-12-16T16:20:57.700Z,18.47
2018-12-16T16:23:28.021Z,18.70
2018-12-16T16:25:56.941Z,18.17
2018-12-16T16:28:28.285Z,19.47
2018-12-16T16:30:57.084Z,15.33
2018-12-16T16:33:26.973Z,16.50
2018-12-16T16:35:56.035Z,15.63
2018-12-16T16:38:24.994Z,17.37
2018-12-16T16:40:54.140Z,15.13
2018-12-16T16:43:22.856Z,15.10
2018-12-16T16:45:55.144Z,17.87
2018-12-16T16:48:23.894Z,19.83
2018-12-16T16:51:11.695Z,15.17
2018-12-16T16:53:40.527Z,16.73
2018-12-16T16:56:12.879Z,15.87
2018-12-16T16:58:41.683Z,15.67
2018-12-16T17:01:11.104Z,14.63
2018-12-16T17:03:39.828Z,15.50
2018-12-16T17:06:08.662Z,18.30
2018-12-16T17:08:37.415Z,17.17
2018-12-16T17:11:06.211Z,17.07
2018-12-16T17:13:41.296Z,15.50
2018-12-16T17:16:13.419Z,17.00
2018-12-16T17:18:42.513Z,17.57
2018-12-16T17:21:11.215Z,17.43
2018-12-16T17:23:50.098Z,17.00
2018-12-16T17:26:22.204Z,17.53
2018-12-16T17:28:51.124Z,18.43
2018-12-16T17:31:19.964Z,18.10
2018-12-16T17:33:48.899Z,18.67
2018-12-16T17:36:21.144Z,17.93
2018-12-16T17:38:49.885Z,19.27
2018-12-16T17:41:18.854Z,17.93
2018-12-16T17:43:47.637Z,15.30
2018-12-16T17:46:20.240Z,16.43
2018-12-16T17:48:50.095Z,16.00
2018-12-16T17:51:18.811Z,16.20
2018-12-16T17:54:04.127Z,17.03
2018-12-16T17:56:45.762Z,17.03
2018-12-16T17:59:17.869Z,18.60
2018-12-16T18:01:45.562Z,18.87
2018-12-16T18:04:14.431Z,17.03
2018-12-16T18:07:02.054Z,18.13
2018-12-16T18:09:38.147Z,17.93
2018-12-16T18:12:13.389Z,17.53
2018-12-16T18:14:42.244Z,16.83
2018-12-16T18:17:14.608Z,17.30
2018-12-16T18:19:43.396Z,16.40
2018-12-16T18:22:16.051Z,16.30
2018-12-16T18:24:44.870Z,17.03
2018-12-16T18:27:19.586Z,17.60
2018-12-16T18:29:48.436Z,16.87
2018-12-16T18:32:17.180Z,16.10
2018-12-16T18:34:52.934Z,16.20
2018-12-16T18:37:33.990Z,15.13
2018-12-16T18:40:03.104Z,15.03
2018-12-16T18:42:42.679Z,15.77
2018-12-16T18:45:11.486Z,18.17
2018-12-16T18:47:52.540Z,16.77
2018-12-16T18:50:21.314Z,15.90
2018-12-16T18:53:08.352Z,16.07
2018-12-16T18:55:47.155Z,17.37
2018-12-16T18:58:26.036Z,14.93
2018-12-16T19:01:13.660Z,16.77
2018-12-16T19:03:42.484Z,16.70
2018-12-16T19:06:23.842Z,14.10
2018-12-16T19:08:52.577Z,14.57
2018-12-16T19:11:21.491Z,14.53
2018-12-16T19:13:50.418Z,16.50
2018-12-16T19:16:22.546Z,15.60
2018-12-16T19:18:54.831Z,18.20
2018-12-16T19:21:43.945Z,16.43
2018-12-16T19:24:13.861Z,15.50
2018-12-16T19:26:46.039Z,16.50
2018-12-16T19:29:26.968Z,17.73
2018-12-16T19:31:55.704Z,16.60
2018-12-16T19:34:30.076Z,15.80
2018-12-16T19:37:06.228Z,18.87
2018-12-16T19:39:38.652Z,18.97
2018-12-16T19:42:07.387Z,17.03
2018-12-16T19:44:38.148Z,18.00
2018-12-16T19:47:10.727Z,16.90
2018-12-16T19:49:39.456Z,19.87
2018-12-16T19:55:18.173Z,15.50
2018-12-16T20:00:38.929Z,16.40
2018-12-16T20:06:00.808Z,18.20
2018-12-16T20:08:35.137Z,15.53
2018-12-16T20:11:18.372Z,17.33
2018-12-16T20:13:50.330Z,19.23
2018-12-16T20:16:19.108Z,15.70
2018-12-16T20:18:47.907Z,16.67
2018-12-16T20:21:16.609Z,17.07
2018-12-16T20:23:51.667Z,18.40
2018-12-16T20:26:20.456Z,17.73
2018-12-16T20:28:49.320Z,18.43
2018-12-16T20:31:18.153Z,16.50
2018-12-16T20:33:49.892Z,17.60
2018-12-16T20:36:18.704Z,17.23
2018-12-16T20:38:53.891Z,20.13
2018-12-16T20:41:22.704Z,18.60
2018-12-16T20:43:54.834Z,16.50
2018-12-16T20:46:23.591Z,16.60
2018-12-16T20:48:52.364Z,15.70
2018-12-16T20:51:21.120Z,17.60
2018-12-16T20:53:53.599Z,18.90
2018-12-16T20:56:22.551Z,17.67
2018-12-16T20:58:51.358Z,17.67
2018-12-16T21:01:26.315Z,17.60
2018-12-16T21:03:58.359Z,18.97
2018-12-16T21:06:27.095Z,15.87
2018-12-16T21:09:02.835Z,18.20
2018-12-16T21:11:37.063Z,18.80
2018-12-16T21:14:14.383Z,18.80
2018-12-16T21:17:00.411Z,18.17
2018-12-16T21:19:29.414Z,17.13
2018-12-16T21:22:02.183Z,17.70
2018-12-16T21:24:31.040Z,17.03
2018-12-16T21:26:59.832Z,17.37
2018-12-16T21:29:28.603Z,16.20
2018-12-16T21:31:57.431Z,16.93
2018-12-16T21:34:30.419Z,18.30
2018-12-16T21:36:59.171Z,17.00
2018-12-16T21:39:33.751Z,16.80
2018-12-16T21:42:02.484Z,17.50
2018-12-16T21:44:31.480Z,17.80
2018-12-16T21:47:05.904Z,17.40
2018-12-16T21:49:34.719Z,19.97
2018-12-16T21:52:03.532Z,19.97
2018-12-16T21:54:32.247Z,17.30
2018-12-16T21:57:06.076Z,20.83
2018-12-16T21:59:34.938Z,16.33
2018-12-16T22:02:03.675Z,18.50
2018-12-16T22:04:32.499Z,19.07
2018-12-16T22:07:01.627Z,19.40
2018-12-16T22:09:30.511Z,16.60
2018-12-16T22:11:59.366Z,15.23
2018-12-16T22:14:33.071Z,14.90
2018-12-16T22:17:01.843Z,14.10
2018-12-16T22:19:30.575Z,15.37
2018-12-16T22:21:59.552Z,16.43
2018-12-16T22:24:28.339Z,14.13
2018-12-16T22:26:57.076Z,15.80
2018-12-16T22:37:27.976Z,16.77
2018-12-16T22:40:07.350Z,15.80
2018-12-16T22:42:39.476Z,13.83
2018-12-16T22:45:08.382Z,14.23
2018-12-16T22:47:37.155Z,14.50
2018-12-16T22:50:13.039Z,13.43
2018-12-16T22:52:45.203Z,15.43
2018-12-16T22:55:26.064Z,13.73
2018-12-16T22:58:02.319Z,13.13
2018-12-16T23:00:31.043Z,13.90
2018-12-16T23:03:06.045Z,14.13
2018-12-16T23:05:34.884Z,13.00
2018-12-16T23:08:03.600Z,14.27
2018-12-16T23:13:28.860Z,12.47
2018-12-16T23:15:57.568Z,13.10
2018-12-16T23:18:26.280Z,14.87
2018-12-16T23:20:55.120Z,16.77
2018-12-16T23:23:27.167Z,16.93
2018-12-16T23:25:55.979Z,16.33
2018-12-16T23:28:38.203Z,18.30
2018-12-16T23:31:06.979Z,17.10
2018-12-16T23:33:38.809Z,16.27
2018-12-16T23:36:19.568Z,15.43
2018-12-16T23:38:48.280Z,16.83
2018-12-16T23:41:17.152Z,15.60
2018-12-16T23:43:49.520Z,14.50
2018-12-16T23:46:18.339Z,14.60
2018-12-16T23:48:47.083Z,15.67
2018-12-16T23:51:15.868Z,15.83
2018-12-16T23:53:48.040Z,15.20
2018-12-16T23:56:26.419Z,15.80
2018-12-16T23:59:07.797Z,15.73
